createdAt,value
2022-10-05T00:01:26.212Z,99112.19
2022-10-05T00:07:09.519Z,99116.94
2022-10-05T00:12:31.236Z,99118.16
2022-10-05T00:17:53.112Z,99113.81
2022-10-05T00:23:18.974Z,99118.66
2022-10-05T00:28:41.398Z,99110.78
2022-10-05T00:34:03.327Z,99104.44
2022-10-05T00:39:25.633Z,99101.47
2022-10-05T00:44:51.514Z,99102.16
2022-10-05T00:50:40.616Z,99108.66
2022-10-05T00:56:39.161Z,99100.78
2022-10-05T01:02:20.247Z,99104.44
2022-10-05T01:07:58.758Z,99107.09
2022-10-05T01:13:34.677Z,99113.53
2022-10-05T01:19:25.726Z,99108.03
2022-10-05T01:25:14.302Z,99107.22
2022-10-05T01:31:19.589Z,99093.34
2022-10-05T01:37:08.487Z,99093.41
2022-10-05T01:42:37.998Z,99084.97
2022-10-05T01:48:07.559Z,99093.25
2022-10-05T01:53:41.538Z,99096.53
2022-10-05T01:59:23.216Z,99085.47
2022-10-05T02:05:01.933Z,99071.09
2022-10-05T02:10:28.678Z,99075.00
2022-10-05T02:16:02.609Z,99081.69
2022-10-05T02:21:25.521Z,99073.53
2022-10-05T02:26:50.139Z,99069.16
2022-10-05T02:32:19.865Z,99060.09
2022-10-05T02:38:08.541Z,99059.06
2022-10-05T02:43:48.528Z,99054.25
2022-10-05T02:49:33.042Z,99046.22
2022-10-05T02:55:19.197Z,99060.66
2022-10-05T03:00:47.776Z,99062.34
2022-10-05T03:06:23.031Z,99076.28
2022-10-05T03:12:30.263Z,99075.81
2022-10-05T03:18:30.606Z,99074.75
2022-10-05T03:24:17.343Z,99068.09
2022-10-05T03:29:59.417Z,99064.25
2022-10-05T03:35:29.846Z,99048.09
2022-10-05T03:40:58.397Z,99035.00
2022-10-05T03:46:39.708Z,99031.31
2022-10-05T03:52:09.166Z,99033.16
2022-10-05T03:57:38.784Z,99031.97
2022-10-05T04:03:12.450Z,99025.72
2022-10-05T04:08:47.811Z,99016.44
2022-10-05T04:14:20.392Z,99021.13
2022-10-05T04:20:00.792Z,99018.56
2022-10-05T04:25:31.735Z,99013.91
2022-10-05T04:30:54.530Z,99013.59
2022-10-05T04:36:26.612Z,99007.81
2022-10-05T04:42:19.115Z,99005.22
2022-10-05T04:48:20.214Z,99014.00
2022-10-05T04:53:53.531Z,99008.13
2022-10-05T04:59:36.338Z,99025.63
2022-10-05T05:05:28.806Z,99034.25
2022-10-05T05:11:24.945Z,99046.25
2022-10-05T05:17:13.474Z,99054.16
2022-10-05T05:22:48.737Z,99060.38
2022-10-05T05:28:18.467Z,99057.94
2022-10-05T05:34:06.831Z,99063.16
2022-10-05T05:39:49.506Z,99072.34
2022-10-05T05:45:25.699Z,99079.53
2022-10-05T05:51:20.915Z,99073.13
2022-10-05T05:56:53.466Z,99084.34
2022-10-05T06:02:19.908Z,99092.34
2022-10-05T06:07:41.966Z,99090.03
2022-10-05T06:13:11.440Z,99092.81
2022-10-05T06:18:34.355Z,99106.88
2022-10-05T06:24:12.702Z,99122.94
2022-10-05T06:29:54.383Z,99130.75
2022-10-05T06:35:40.722Z,99124.75
2022-10-05T06:41:47.365Z,99127.78
2022-10-05T06:47:45.609Z,99135.13
2022-10-05T06:53:13.433Z,99137.00
2022-10-05T06:59:02.261Z,99132.53
2022-10-05T07:05:12.045Z,99137.56
2022-10-05T07:10:51.496Z,99135.78
2022-10-05T07:16:34.595Z,99140.25
2022-10-05T07:22:22.094Z,99149.66
2022-10-05T07:27:55.732Z,99142.41
2022-10-05T07:33:24.805Z,99146.50
2022-10-05T07:39:07.767Z,99146.25
2022-10-05T07:44:43.308Z,99146.88
2022-10-05T07:50:29.233Z,99155.63
2022-10-05T07:55:54.539Z,99164.78
2022-10-05T08:01:19.194Z,99162.34
2022-10-05T08:06:49.187Z,99164.13
2022-10-05T08:12:26.893Z,99155.97
2022-10-05T08:17:55.214Z,99155.97
2022-10-05T08:23:36.333Z,99161.44
2022-10-05T08:29:33.631Z,99155.34
2022-10-05T08:35:03.978Z,99155.50
2022-10-05T08:40:45.895Z,99143.53
2022-10-05T08:46:29.641Z,99142.44
2022-10-05T08:51:54.315Z,99140.50
2022-10-05T08:57:24.737Z,99137.00
2022-10-05T09:03:22.971Z,99133.25
2022-10-05T09:08:53.735Z,99136.69
2022-10-05T09:14:27.546Z,99126.22
2022-10-05T09:20:17.324Z,99123.72
2022-10-05T09:26:05.461Z,99124.75
2022-10-05T09:31:55.491Z,99119.84
2022-10-05T09:37:29.820Z,99114.75
2022-10-05T09:43:29.133Z,99098.91
2022-10-05T09:49:06.122Z,99092.97
2022-10-05T09:55:06.544Z,99091.59
2022-10-05T10:00:59.547Z,99078.03
2022-10-05T10:06:51.493Z,99063.75
2022-10-05T10:12:42.055Z,99057.03
2022-10-05T10:18:19.140Z,99049.59
2022-10-05T10:23:43.533Z,99046.78
2022-10-05T10:35:25.641Z,99031.53
2022-10-05T10:41:09.069Z,99027.50
2022-10-05T10:47:09.053Z,99019.69
2022-10-05T10:53:04.508Z,99014.34
2022-10-05T10:58:48.090Z,99007.34
2022-10-05T11:04:40.331Z,98995.59
2022-10-05T11:10:19.722Z,98991.97
2022-10-05T11:15:56.857Z,98982.19
2022-10-05T11:21:36.407Z,98971.44
2022-10-05T11:27:20.096Z,98970.47
2022-10-05T11:33:11.262Z,98960.88
2022-10-05T11:38:52.253Z,98963.00
2022-10-05T11:44:38.678Z,98954.56
2022-10-05T11:50:12.370Z,98950.44
2022-10-05T11:55:57.618Z,98945.41
2022-10-05T12:01:34.515Z,98934.28
2022-10-05T12:07:02.862Z,98935.00
2022-10-05T12:12:29.943Z,98934.28
2022-10-05T12:18:13.428Z,98930.19
2022-10-05T12:23:47.009Z,98929.63
2022-10-05T12:29:20.820Z,98922.81
2022-10-05T12:35:01.696Z,98912.53
2022-10-05T12:40:28.218Z,98907.88
2022-10-05T12:45:53.028Z,98902.19
2022-10-05T12:51:42.829Z,98897.06
2022-10-05T12:57:46.537Z,98894.84
2022-10-05T13:03:25.554Z,98881.31
2022-10-05T13:09:03.641Z,98874.25
2022-10-05T13:14:51.815Z,98867.78
2022-10-05T13:20:46.881Z,98874.38
2022-10-05T13:26:21.810Z,98874.06
2022-10-05T13:31:47.964Z,98874.66
2022-10-05T13:37:39.419Z,98874.66
2022-10-05T13:43:32.289Z,98871.03
2022-10-05T13:49:38.995Z,98877.72
2022-10-05T13:55:16.795Z,98863.88
2022-10-05T14:01:00.124Z,98864.91
2022-10-05T14:06:30.635Z,98864.00
2022-10-05T14:12:12.778Z,98868.50
2022-10-05T14:17:40.950Z,98866.00
2022-10-05T14:23:18.436Z,98862.25
2022-10-05T14:28:57.626Z,98872.00
2022-10-05T14:34:35.955Z,98879.78
2022-10-05T14:40:20.286Z,98873.13
2022-10-05T14:45:55.746Z,98873.78
2022-10-05T14:51:31.883Z,98875.19
2022-10-05T14:57:23.141Z,98866.25
2022-10-05T15:02:59.914Z,98870.16
2022-10-05T15:08:27.990Z,98867.91
2022-10-05T15:13:50.114Z,98869.31
2022-10-05T15:19:20.913Z,98870.44
2022-10-05T15:25:01.697Z,98871.16
2022-10-05T15:30:24.525Z,98864.44
2022-10-05T15:36:09.605Z,98867.38
2022-10-05T15:41:55.182Z,98864.59
2022-10-05T15:47:39.088Z,98874.63
2022-10-05T15:53:16.022Z,98876.16
2022-10-05T15:58:49.942Z,98885.75
2022-10-05T16:04:23.220Z,98891.34
2022-10-05T16:10:13.555Z,98891.78
2022-10-05T16:16:12.586Z,98896.06
2022-10-05T16:21:54.056Z,98908.63
2022-10-05T16:27:34.639Z,98903.28
2022-10-05T16:32:59.382Z,98913.78
2022-10-05T16:38:27.195Z,98911.66
2022-10-05T16:44:06.850Z,98925.00
2022-10-05T16:49:46.215Z,98930.63
2022-10-05T16:55:20.000Z,98940.06
2022-10-05T17:00:58.614Z,98942.94
2022-10-05T17:06:35.292Z,98947.59
2022-10-05T17:12:21.271Z,98956.19
2022-10-05T17:18:18.446Z,98956.97
2022-10-05T17:24:20.729Z,98971.78
2022-10-05T17:29:51.768Z,98974.09
2022-10-05T17:35:18.732Z,98973.75
2022-10-05T17:41:01.039Z,98979.66
2022-10-05T17:46:44.685Z,98984.63
2022-10-05T17:52:46.568Z,98985.25
2022-10-05T17:58:23.924Z,98994.41
2022-10-05T18:03:51.436Z,99001.44
2022-10-05T18:09:22.869Z,99005.06
2022-10-05T18:14:55.269Z,99006.97
2022-10-05T18:20:29.532Z,99019.34
2022-10-05T18:26:13.763Z,99021.47
2022-10-05T18:31:59.246Z,99027.72
2022-10-05T18:37:27.041Z,99037.66
2022-10-05T18:43:18.084Z,99041.03
2022-10-05T18:48:50.744Z,99038.41
2022-10-05T18:54:40.498Z,99040.06
2022-10-05T19:00:29.169Z,99045.69
2022-10-05T19:05:58.690Z,99059.00
2022-10-05T19:11:51.150Z,99061.03
2022-10-05T19:17:25.739Z,99084.06
2022-10-05T19:22:56.491Z,99088.25
2022-10-05T19:28:57.740Z,99094.72
2022-10-05T19:34:39.406Z,99109.91
2022-10-05T19:40:16.397Z,99115.53
2022-10-05T19:45:46.321Z,99130.88
2022-10-05T19:51:16.149Z,99140.50
2022-10-05T19:56:49.527Z,99150.09
2022-10-05T20:02:15.476Z,99168.78
2022-10-05T20:07:37.530Z,99173.16
2022-10-05T20:13:20.537Z,99173.03
2022-10-05T20:19:01.010Z,99184.78
2022-10-05T20:24:25.856Z,99194.09
2022-10-05T20:29:47.657Z,99196.94
2022-10-05T20:35:09.489Z,99207.47
2022-10-05T20:40:31.285Z,99217.53
2022-10-05T20:45:53.863Z,99219.75
2022-10-05T20:51:17.924Z,99220.38
2022-10-05T20:56:42.564Z,99231.34
2022-10-05T21:02:05.192Z,99241.78
2022-10-05T21:07:26.897Z,99246.53
2022-10-05T21:12:48.918Z,99253.69
2022-10-05T21:18:10.600Z,99251.06
2022-10-05T21:23:35.370Z,99259.81
2022-10-05T21:28:58.492Z,99265.31
2022-10-05T21:34:20.236Z,99270.34
2022-10-05T21:39:42.289Z,99268.13
2022-10-05T21:45:04.392Z,99277.25
2022-10-05T21:50:26.521Z,99287.47
2022-10-05T21:55:50.695Z,99292.75
2022-10-05T22:01:12.803Z,99290.63
2022-10-05T22:06:35.326Z,99298.56
2022-10-05T22:11:57.480Z,99298.22
2022-10-05T22:17:30.870Z,99300.78
2022-10-05T22:22:53.898Z,99300.25
2022-10-05T22:28:16.555Z,99314.06
2022-10-05T22:33:39.001Z,99315.13
2022-10-05T22:39:00.762Z,99318.81
2022-10-05T22:44:22.684Z,99327.47
2022-10-05T22:49:44.479Z,99321.38
2022-10-05T22:55:06.800Z,99318.16
2022-10-05T23:00:53.391Z,99323.88
2022-10-05T23:06:20.895Z,99330.50
2022-10-05T23:11:42.622Z,99323.53
2022-10-05T23:17:04.469Z,99346.19
2022-10-05T23:22:26.381Z,99338.50
2022-10-05T23:27:48.096Z,99350.41
2022-10-05T23:33:09.980Z,99347.44
2022-10-05T23:38:32.505Z,99338.88
2022-10-05T23:43:57.227Z,99346.78
2022-10-05T23:49:18.927Z,99357.22
2022-10-05T23:54:40.731Z,99355.53
